Time;durP1;ratioP1;P1;durP2;ratioP2;P2;SDS_P1;SDS_P2;PMS_P1;PMS_P2;Temp;Humidity;BMP_temperature;BMP_pressure;BME280_temperature;BME280_humidity;BME280_pressure;Samples;Min_cycle;Max_cycle;Signal;HPM_P1;HPM_P2
2022/03/11 00:00:35;;;;;;;10.75;6.95;;;;;;;10.08;33.09;100356.13;5113531;28;20096;-65
2022/03/11 00:03:02;;;;;;;11.20;6.55;;;;;;;10.02;33.45;100359.06;5112321;28;20053;-61
2022/03/11 00:05:29;;;;;;;9.82;6.38;;;;;;;9.96;33.34;100354.91;5113870;28;20051;-63
2022/03/11 00:07:55;;;;;;;9.07;6.57;;;;;;;9.91;33.41;100357.72;5112421;28;20048;-62
2022/03/11 00:10:22;;;;;;;11.02;5.95;;;;;;;9.85;33.60;100357.16;5113314;28;20060;-61
2022/03/11 00:12:49;;;;;;;11.25;6.50;;;;;;;9.78;33.69;100354.81;5113594;28;20050;-63
2022/03/11 00:15:16;;;;;;;9.82;6.07;;;;;;;9.71;33.60;100353.38;5113452;28;20476;-61
2022/03/11 00:17:42;;;;;;;9.05;6.13;;;;;;;9.63;33.89;100358.97;5111972;28;20054;-61
2022/03/11 00:20:09;;;;;;;9.93;6.75;;;;;;;9.57;33.88;100350.50;5113187;28;20100;-61
2022/03/11 00:22:36;;;;;;;11.15;6.15;;;;;;;9.50;33.87;100353.38;5113069;28;20073;-61
2022/03/11 00:25:03;;;;;;;12.15;6.72;;;;;;;9.42;34.32;100352.00;5113162;28;20176;-61
2022/03/11 00:27:30;;;;;;;12.63;6.72;;;;;;;9.35;34.29;100348.78;5111940;28;20047;-63
2022/03/11 00:29:56;;;;;;;9.98;6.28;;;;;;;9.30;34.30;100353.38;5111467;28;20048;-62
2022/03/11 00:32:23;;;;;;;14.15;6.93;;;;;;;9.25;34.59;100350.94;5112132;28;20059;-61
2022/03/11 00:34:49;;;;;;;13.27;7.57;;;;;;;9.19;34.68;100352.03;5113283;28;20104;-61
2022/03/11 00:37:16;;;;;;;12.20;6.90;;;;;;;9.14;34.85;100351.38;5112939;28;20039;-61
2022/03/11 00:39:43;;;;;;;13.75;7.68;;;;;;;9.07;34.77;100342.91;5112828;28;20055;-61
2022/03/11 00:42:09;;;;;;;13.43;7.15;;;;;;;9.03;35.08;100346.56;5112876;28;20054;-63
2022/03/11 00:44:36;;;;;;;11.90;6.75;;;;;;;8.98;34.88;100349.38;5112847;28;20044;-60
2022/03/11 00:47:03;;;;;;;10.68;6.63;;;;;;;8.94;35.41;100352.22;5113123;28;20047;-61
2022/03/11 00:49:29;;;;;;;14.13;7.40;;;;;;;8.90;35.46;100350.63;5113003;28;20052;-61
2022/03/11 00:51:56;;;;;;;13.23;8.07;;;;;;;8.85;35.59;100345.53;5112842;28;20055;-61
2022/03/11 00:54:22;;;;;;;12.85;7.85;;;;;;;8.81;35.51;100342.19;5112792;28;20537;-61
2022/03/11 00:56:49;;;;;;;15.65;7.97;;;;;;;8.79;35.50;100348.44;5112704;28;20056;-62
2022/03/11 00:59:16;;;;;;;12.60;8.23;;;;;;;8.73;35.72;100339.88;5111201;28;20188;-62
2022/03/11 01:01:43;;;;;;;12.50;7.90;;;;;;;8.71;36.12;100340.88;5112805;28;20450;-63
2022/03/11 01:04:10;;;;;;;12.80;8.63;;;;;;;8.68;35.78;100347.06;5112562;28;20052;-61
2022/03/11 01:06:36;;;;;;;15.60;8.52;;;;;;;8.66;36.03;100346.28;5112649;28;20168;-61
2022/03/11 01:09:03;;;;;;;16.30;8.73;;;;;;;8.62;36.36;100339.44;5112541;28;20389;-60
2022/03/11 01:11:30;;;;;;;14.82;8.80;;;;;;;8.59;36.36;100342.19;5112122;28;20044;-61
2022/03/11 01:13:56;;;;;;;13.45;8.57;;;;;;;8.56;36.34;100334.47;5110871;28;20055;-62
2022/03/11 01:16:23;;;;;;;15.65;9.05;;;;;;;8.53;36.65;100337.19;5112519;28;20051;-63
2022/03/11 01:18:50;;;;;;;17.35;9.55;;;;;;;8.49;36.34;100325.94;5112396;28;20051;-60
2022/03/11 01:21:17;;;;;;;15.07;9.18;;;;;;;8.45;36.90;100329.59;5111881;28;20100;-61
2022/03/11 01:23:44;;;;;;;15.50;9.68;;;;;;;8.41;37.03;100325.38;5110863;28;20051;-61
2022/03/11 01:26:12;;;;;;;14.52;8.88;;;;;;;8.37;37.00;100321.16;5112099;28;20096;-60
2022/03/11 01:28:41;;;;;;;16.88;9.85;;;;;;;8.33;36.94;100323.03;5110710;28;20044;-61
2022/03/11 01:31:11;;;;;;;17.02;9.23;;;;;;;8.30;37.12;100331.03;5110863;28;20081;-61
2022/03/11 01:33:42;;;;;;;14.63;8.88;;;;;;;8.25;37.88;100330.34;5111077;28;20059;-61
2022/03/11 01:36:10;;;;;;;15.80;9.63;;;;;;;8.22;37.42;100318.19;5110904;28;20056;-61
2022/03/11 01:38:38;;;;;;;14.55;9.38;;;;;;;8.19;37.58;100323.56;5111906;28;20051;-61
2022/03/11 01:41:06;;;;;;;13.73;8.27;;;;;;;8.15;37.48;100327.22;5110231;28;20056;-61
2022/03/11 01:44:03;;;;;;;15.15;10.25;;;;;;;8.08;38.37;100324.00;5110063;28;20051;-62
2022/03/11 01:46:30;;;;;;;16.38;9.23;;;;;;;8.10;37.32;100316.91;5090197;28;20051;-60
2022/03/11 01:48:58;;;;;;;14.43;8.88;;;;;;;8.08;37.41;100324.00;5090109;28;20131;-61
2022/03/11 01:51:27;;;;;;;11.80;8.48;;;;;;;8.07;37.77;100319.63;5089714;28;20048;-61
2022/03/11 01:53:54;;;;;;;17.20;9.35;;;;;;;8.05;37.70;100311.84;5090220;28;20051;-61
2022/03/11 01:56:23;;;;;;;14.60;8.98;;;;;;;8.04;37.57;100309.28;5089975;28;20093;-61
2022/03/11 01:58:56;;;;;;;15.18;9.35;;;;;;;8.02;38.54;100313.72;5089989;28;20135;-62
2022/03/11 02:01:24;;;;;;;16.67;9.68;;;;;;;8.02;38.05;100305.84;5108252;28;20088;-61
2022/03/11 02:03:52;;;;;;;17.00;10.00;;;;;;;8.00;38.10;100297.19;5111492;28;20055;-61
2022/03/11 02:06:19;;;;;;;15.13;9.45;;;;;;;7.98;37.90;100293.75;5111616;28;20080;-61
2022/03/11 02:08:46;;;;;;;16.33;9.77;;;;;;;7.97;37.81;100292.06;5111292;28;20043;-62
2022/03/11 02:11:13;;;;;;;15.20;9.40;;;;;;;7.94;37.88;100300.91;5111079;28;20048;-61
2022/03/11 02:13:53;;;;;;;17.15;9.70;;;;;;;7.89;39.14;100294.97;5111251;28;20105;-61
2022/03/11 02:16:28;;;;;;;14.73;9.38;;;;;;;7.87;38.58;100287.16;5110915;28;20063;-62
2022/03/11 02:18:55;;;;;;;15.38;9.38;;;;;;;7.86;38.18;100285.47;5111382;28;20077;-62
2022/03/11 02:21:23;;;;;;;17.27;9.98;;;;;;;7.83;38.38;100293.44;5111236;28;20044;-60
2022/03/11 02:23:58;;;;;;;16.63;9.80;;;;;;;7.76;39.19;100281.44;5109924;28;20565;-61
2022/03/11 02:26:27;;;;;;;18.50;10.25;;;;;;;7.74;38.61;100280.66;5109826;28;20116;-60
2022/03/11 02:28:56;;;;;;;16.90;10.57;;;;;;;7.69;38.77;100279.06;5109798;28;20640;-60
2022/03/11 02:31:27;;;;;;;20.20;10.98;;;;;;;7.64;39.00;100277.53;5109812;28;20047;-61
2022/03/11 02:33:54;;;;;;;16.40;10.13;;;;;;;7.61;38.71;100281.13;5109434;28;20052;-61
2022/03/11 02:36:21;;;;;;;17.55;11.10;;;;;;;7.57;38.63;100274.28;5111069;28;20048;-62
2022/03/11 02:38:48;;;;;;;16.92;11.05;;;;;;;7.53;38.73;100263.06;5110961;28;20096;-61
2022/03/11 02:41:15;;;;;;;18.65;11.32;;;;;;;7.48;38.95;100264.13;5109371;28;20044;-62
2022/03/11 02:43:42;;;;;;;17.80;10.90;;;;;;;7.43;38.86;100264.28;5109684;28;20462;-62
2022/03/11 02:46:14;;;;;;;19.10;11.23;;;;;;;7.38;39.64;100258.34;5111042;28;20129;-63
2022/03/11 02:48:41;;;;;;;17.20;10.13;;;;;;;7.35;39.07;100263.69;5110418;28;20457;-62
2022/03/11 02:51:08;;;;;;;16.98;10.75;;;;;;;7.31;38.98;100262.97;5110877;28;20704;-61
2022/03/11 02:53:40;;;;;;;20.13;10.80;;;;;;;7.26;39.09;100255.25;5114430;28;20044;-61
2022/03/11 02:56:11;;;;;;;21.40;11.10;;;;;;;7.22;40.02;100258.06;5115368;28;20061;-61
2022/03/11 02:58:40;;;;;;;20.70;11.18;;;;;;;7.17;39.29;100255.56;5114984;28;20047;-60
2022/03/11 03:01:07;;;;;;;18.35;11.60;;;;;;;7.11;39.51;100251.41;5114595;28;20044;-60
2022/03/11 03:03:34;;;;;;;19.38;10.75;;;;;;;7.07;39.54;100243.72;5097025;28;20083;-60
2022/03/11 03:06:03;;;;;;;21.65;11.10;;;;;;;7.02;39.81;100247.34;5114570;27;20052;-63
2022/03/11 03:08:29;;;;;;;28.25;12.10;;;;;;;6.99;39.48;100242.22;5113344;28;20055;-61
2022/03/11 03:10:56;;;;;;;17.25;11.10;;;;;;;6.96;39.75;100241.47;5114684;28;20056;-60
2022/03/11 03:13:23;;;;;;;15.95;10.70;;;;;;;6.92;39.82;100238.13;5114439;28;20112;-60
2022/03/11 03:15:49;;;;;;;18.92;11.57;;;;;;;6.90;39.82;100238.16;5114658;28;20097;-62
2022/03/11 03:18:16;;;;;;;19.33;11.90;;;;;;;6.89;39.95;100230.38;5114577;28;20043;-61
2022/03/11 03:20:43;;;;;;;20.48;11.93;;;;;;;6.86;40.00;100231.31;5114221;28;20054;-61
2022/03/11 03:23:09;;;;;;;21.55;12.70;;;;;;;6.82;40.00;100229.72;5114678;28;20044;-61
2022/03/11 03:25:36;;;;;;;21.33;11.27;;;;;;;6.80;40.02;100225.44;5114606;28;20097;-61
2022/03/11 03:28:03;;;;;;;25.63;12.20;;;;;;;6.76;40.17;100228.16;5114457;28;20051;-61
2022/03/11 03:30:30;;;;;;;18.75;11.80;;;;;;;6.72;40.61;100223.94;5114432;28;20055;-63
2022/03/11 03:32:56;;;;;;;20.77;12.00;;;;;;;6.69;40.12;100224.03;5114534;28;20104;-61
2022/03/11 03:35:23;;;;;;;20.70;12.10;;;;;;;6.67;40.18;100218.00;5114280;28;20051;-61
2022/03/11 03:37:49;;;;;;;20.42;11.80;;;;;;;6.63;40.33;100219.88;5114582;28;20051;-62
2022/03/11 03:40:16;;;;;;;20.58;12.75;;;;;;;6.61;40.50;100215.56;5112962;28;20048;-63
2022/03/11 03:42:47;;;;;;;21.13;12.80;;;;;;;6.56;41.34;100215.75;5112931;28;20047;-60
2022/03/11 03:45:14;;;;;;;20.70;12.18;;;;;;;6.56;40.39;100217.50;5113666;28;20503;-61
2022/03/11 03:47:41;;;;;;;24.33;12.05;;;;;;;6.51;40.65;100215.88;5112853;28;20059;-61
2022/03/11 03:50:08;;;;;;;19.23;12.40;;;;;;;6.49;40.74;100215.09;5113995;27;20051;-61
2022/03/11 03:52:34;;;;;;;19.92;12.30;;;;;;;6.45;40.78;100204.78;5113997;28;20093;-61
2022/03/11 03:55:01;;;;;;;22.13;12.30;;;;;;;6.41;40.77;100209.25;5113979;28;20492;-60
2022/03/11 03:57:28;;;;;;;20.92;12.48;;;;;;;6.38;40.70;100201.50;5113901;28;20078;-61
2022/03/11 03:59:54;;;;;;;21.35;12.35;;;;;;;6.35;40.91;100199.84;5113323;28;20478;-62
2022/03/11 04:02:21;;;;;;;20.85;12.52;;;;;;;6.33;41.01;100200.81;5113492;28;20055;-62
2022/03/11 04:04:48;;;;;;;18.73;12.13;;;;;;;6.31;41.36;100197.41;5113440;28;20047;-60
2022/03/11 04:07:15;;;;;;;20.17;12.57;;;;;;;6.27;40.98;100195.78;5114077;28;20043;-62
2022/03/11 04:09:42;;;;;;;18.98;11.93;;;;;;;6.24;41.36;100197.56;5113571;28;20047;-61
2022/03/11 04:12:09;;;;;;;20.90;11.90;;;;;;;6.23;41.37;100190.66;5112203;28;20069;-61
2022/03/11 04:14:36;;;;;;;23.50;12.55;;;;;;;6.22;41.25;100193.31;5113625;28;20054;-61
2022/03/11 04:17:03;;;;;;;23.13;12.13;;;;;;;6.19;41.35;100194.25;5113292;28;20105;-61
2022/03/11 04:19:30;;;;;;;23.20;13.70;;;;;;;6.20;41.34;100197.75;5113528;28;20066;-61
2022/03/11 04:21:56;;;;;;;19.60;12.48;;;;;;;6.18;41.28;100183.84;5113842;28;20051;-62
2022/03/11 04:24:23;;;;;;;20.05;12.05;;;;;;;6.18;41.05;100184.72;5112465;28;20054;-62
2022/03/11 04:26:50;;;;;;;19.92;12.80;;;;;;;6.16;41.43;100189.13;5113673;28;20051;-61
2022/03/11 04:29:16;;;;;;;21.75;12.45;;;;;;;6.15;41.24;100191.78;5113328;28;20385;-61
2022/03/11 04:31:43;;;;;;;23.83;12.63;;;;;;;6.13;41.33;100192.69;5112701;28;20077;-62
2022/03/11 04:34:10;;;;;;;20.65;12.43;;;;;;;6.11;41.62;100186.66;5113769;28;20112;-61
2022/03/11 04:36:38;;;;;;;19.45;11.30;;;;;;;6.11;41.56;100184.06;5113559;28;20048;-62
2022/03/11 04:39:07;;;;;;;18.52;12.40;;;;;;;6.09;41.69;100183.22;5112074;28;20058;-65
2022/03/11 04:41:35;;;;;;;19.85;12.13;;;;;;;6.08;41.67;100183.28;5111824;28;20062;-61
2022/03/11 04:44:03;;;;;;;20.50;12.63;;;;;;;6.06;41.73;100183.31;5111562;28;20077;-62
2022/03/11 04:46:30;;;;;;;20.85;12.50;;;;;;;6.05;41.71;100180.78;5112232;28;20059;-62
2022/03/11 04:48:57;;;;;;;22.33;12.82;;;;;;;6.04;41.98;100181.66;5113180;28;20060;-61
2022/03/11 04:51:25;;;;;;;19.45;12.82;;;;;;;6.02;41.65;100176.44;5112922;28;20442;-63
2022/03/11 04:53:51;;;;;;;20.52;12.55;;;;;;;6.00;41.70;100179.13;5112968;28;20054;-60
2022/03/11 04:56:19;;;;;;;21.70;12.55;;;;;;;5.98;41.79;100178.31;5112810;28;20051;-61
2022/03/11 04:58:45;;;;;;;21.45;13.15;;;;;;;5.97;41.68;100176.59;5112892;28;20126;-61
2022/03/11 05:01:12;;;;;;;23.63;13.00;;;;;;;5.95;41.99;100174.94;5112579;28;20089;-61
2022/03/11 05:03:39;;;;;;;22.75;13.32;;;;;;;5.93;41.77;100166.28;5112878;28;20059;-62
2022/03/11 05:06:09;;;;;;;22.38;12.80;;;;;;;5.91;41.85;100179.38;5112454;28;20115;-62
2022/03/11 05:08:36;;;;;;;22.13;13.15;;;;;;;5.89;41.96;100172.50;5112548;28;20051;-63
2022/03/11 05:11:03;;;;;;;21.08;12.55;;;;;;;5.86;41.95;100168.22;5112178;28;20051;-60
2022/03/11 05:13:30;;;;;;;27.55;13.20;;;;;;;5.85;41.82;100169.13;5112141;28;20044;-62
2022/03/11 05:15:57;;;;;;;21.33;13.02;;;;;;;5.83;41.80;100179.63;5111927;28;20089;-61
2022/03/11 05:18:26;;;;;;;23.27;13.38;;;;;;;5.82;42.18;100172.72;5111615;28;20392;-62
2022/03/11 05:20:53;;;;;;;23.73;13.45;;;;;;;5.79;41.99;100170.19;5112633;28;20058;-62
2022/03/11 05:23:21;;;;;;;23.20;13.25;;;;;;;5.79;41.90;100161.50;5112365;28;20108;-61
2022/03/11 05:25:48;;;;;;;22.65;12.93;;;;;;;5.77;42.12;100168.53;5110711;28;20047;-62
2022/03/11 05:28:14;;;;;;;23.38;12.48;;;;;;;5.76;42.13;100174.66;5112528;28;20056;-62
2022/03/11 05:30:41;;;;;;;21.77;13.45;;;;;;;5.73;42.33;100173.00;5112535;28;20121;-62
2022/03/11 05:33:13;;;;;;;24.23;13.30;;;;;;;5.72;42.28;100179.97;5112433;28;20060;-62
2022/03/11 05:35:41;;;;;;;21.58;12.75;;;;;;;5.71;42.31;100169.56;5112439;28;20118;-61
2022/03/11 05:38:07;;;;;;;22.75;13.75;;;;;;;5.71;42.11;100172.16;5112104;28;20049;-60
2022/03/11 05:40:34;;;;;;;22.08;13.40;;;;;;;5.73;41.79;100175.59;5111808;28;20101;-60
2022/03/11 05:43:01;;;;;;;22.45;13.15;;;;;;;5.71;42.36;100166.94;5110645;28;20047;-61
2022/03/11 05:45:28;;;;;;;26.05;14.32;;;;;;;5.70;42.31;100175.69;5111542;28;20047;-61
2022/03/11 05:47:55;;;;;;;21.45;13.02;;;;;;;5.68;42.27;100165.28;5111830;27;20116;-63
2022/03/11 05:50:21;;;;;;;23.60;14.52;;;;;;;5.67;42.16;100168.81;5111277;28;20043;-61
2022/03/11 05:52:49;;;;;;;23.52;14.30;;;;;;;5.65;42.37;100168.00;5111380;28;20047;-62
2022/03/11 05:55:17;;;;;;;21.55;13.00;;;;;;;5.63;42.36;100166.31;5111694;28;20047;-61
2022/03/11 05:57:43;;;;;;;23.75;13.48;;;;;;;5.60;42.02;100169.88;5111606;28;20100;-64
2022/03/11 06:00:10;;;;;;;23.90;14.30;;;;;;;5.58;42.30;100163.84;5111490;28;20116;-61
2022/03/11 06:02:39;;;;;;;23.33;13.90;;;;;;;5.56;42.22;100163.91;5110616;28;20063;-63
2022/03/11 06:05:09;;;;;;;24.83;14.43;;;;;;;5.54;42.48;100165.72;5111191;28;20130;-62
2022/03/11 06:07:37;;;;;;;25.85;14.00;;;;;;;5.54;42.63;100157.00;5109936;28;20051;-61
2022/03/11 06:10:04;;;;;;;23.05;13.75;;;;;;;5.51;42.28;100155.34;5111234;28;20051;-61
2022/03/11 06:12:31;;;;;;;24.40;13.93;;;;;;;5.48;42.42;100150.22;5110069;28;20104;-61
2022/03/11 06:14:58;;;;;;;25.65;14.50;;;;;;;5.48;42.84;100155.44;5110027;28;20043;-62
2022/03/11 06:17:24;;;;;;;21.73;13.27;;;;;;;5.46;42.72;100154.63;5110974;28;20434;-61
2022/03/11 06:19:51;;;;;;;22.60;13.57;;;;;;;5.44;42.75;100151.19;5109860;28;20062;-62
2022/03/11 06:22:18;;;;;;;23.63;14.23;;;;;;;5.42;42.76;100150.41;5111376;28;20120;-61
2022/03/11 06:24:44;;;;;;;25.08;13.98;;;;;;;5.44;42.75;100151.19;5111120;28;20048;-61
2022/03/11 06:27:11;;;;;;;23.88;14.00;;;;;;;5.43;42.49;100136.44;5111052;28;20047;-61
2022/03/11 06:29:37;;;;;;;22.65;13.20;;;;;;;5.43;42.62;100145.13;5111007;28;20050;-61
2022/03/11 06:32:04;;;;;;;33.25;15.13;;;;;;;5.45;42.78;100142.47;5111046;28;20044;-62
2022/03/11 06:34:31;;;;;;;21.77;12.88;;;;;;;5.47;42.67;100146.72;5110090;28;20050;-60
2022/03/11 06:36:57;;;;;;;23.52;13.40;;;;;;;5.51;42.81;100152.75;5110838;28;20051;-61
2022/03/11 06:39:24;;;;;;;25.17;13.77;;;;;;;5.55;43.07;100141.31;5110687;28;20063;-62
2022/03/11 06:41:51;;;;;;;24.73;13.85;;;;;;;5.60;42.66;100147.22;5110871;28;20063;-62
2022/03/11 06:44:18;;;;;;;23.52;14.02;;;;;;;5.65;42.70;100146.25;5110845;28;20063;-62
2022/03/11 06:46:44;;;;;;;23.27;13.98;;;;;;;5.69;42.43;100161.75;5110844;28;20388;-62
2022/03/11 06:49:11;;;;;;;21.98;13.73;;;;;;;5.73;42.59;100160.75;5110409;28;20130;-63
2022/03/11 06:51:38;;;;;;;28.65;14.10;;;;;;;5.79;42.70;100154.50;5110445;28;20051;-62
2022/03/11 06:54:07;;;;;;;27.77;14.30;;;;;;;5.83;42.68;100160.50;5110502;28;20050;-61
2022/03/11 06:56:35;;;;;;;22.58;13.60;;;;;;;5.86;42.61;100161.25;5109710;28;20061;-61
2022/03/11 06:59:02;;;;;;;26.65;14.65;;;;;;;5.91;42.59;100163.72;5110679;28;20052;-61
2022/03/11 07:01:29;;;;;;;23.38;13.93;;;;;;;5.96;42.28;100155.75;5110363;28;20055;-62
2022/03/11 07:03:56;;;;;;;24.52;14.48;;;;;;;5.99;42.39;100150.44;5110804;28;20052;-63
2022/03/11 07:06:23;;;;;;;23.63;14.32;;;;;;;6.03;42.23;100154.69;5110192;28;20044;-62
2022/03/11 07:08:50;;;;;;;22.70;14.15;;;;;;;6.04;42.24;100148.56;5110699;28;20062;-61
2022/03/11 07:11:17;;;;;;;23.05;14.10;;;;;;;6.08;42.05;100149.28;5110588;28;20047;-62
2022/03/11 07:13:44;;;;;;;23.27;14.23;;;;;;;6.11;42.11;100138.75;5110151;28;20052;-62
2022/03/11 07:16:10;;;;;;;27.35;14.52;;;;;;;6.13;42.33;100142.16;5108882;28;20047;-60
2022/03/11 07:18:37;;;;;;;22.30;14.10;;;;;;;6.15;42.03;100142.13;5109104;28;20062;-62
2022/03/11 07:21:04;;;;;;;27.95;14.75;;;;;;;6.16;41.86;100141.22;5108545;28;20465;-63
2022/03/11 07:23:30;;;;;;;25.58;14.13;;;;;;;6.18;42.34;100136.78;5108319;28;20051;-62
2022/03/11 07:25:57;;;;;;;23.00;13.48;;;;;;;6.20;42.12;100142.84;5108783;28;20044;-62
2022/03/11 07:28:24;;;;;;;22.95;13.68;;;;;;;6.20;41.94;100150.69;5109655;28;20047;-61
2022/03/11 07:30:50;;;;;;;22.73;14.00;;;;;;;6.21;42.22;100145.38;5110293;28;20060;-61
2022/03/11 07:33:17;;;;;;;26.30;15.50;;;;;;;6.22;42.12;100146.25;5110689;28;20051;-61
2022/03/11 07:35:43;;;;;;;23.48;14.90;;;;;;;6.23;42.09;100147.94;5110660;28;20055;-62
2022/03/11 07:38:10;;;;;;;27.92;14.70;;;;;;;6.25;42.13;100143.53;5111786;28;20047;-62
2022/03/11 07:40:37;;;;;;;25.35;13.77;;;;;;;6.28;42.23;100135.56;5114175;28;20511;-62
2022/03/11 07:43:06;;;;;;;22.40;13.82;;;;;;;6.33;41.94;100132.81;5113175;28;20051;-62
2022/03/11 07:45:32;;;;;;;23.75;14.20;;;;;;;6.36;41.94;100132.72;5113678;28;20051;-61
2022/03/11 07:47:59;;;;;;;25.52;14.50;;;;;;;6.39;42.09;100133.47;5112918;28;20048;-61
2022/03/11 07:50:27;;;;;;;22.63;14.30;;;;;;;6.44;41.94;100120.25;5113985;27;20051;-62
2022/03/11 07:52:53;;;;;;;25.10;15.18;;;;;;;6.48;41.78;100115.75;5113910;28;20052;-63
2022/03/11 07:55:22;;;;;;;24.00;13.38;;;;;;;6.51;41.84;100119.13;5114262;28;20113;-62
2022/03/11 07:57:48;;;;;;;21.75;13.73;;;;;;;6.56;41.69;100126.81;5112394;28;20086;-62
2022/03/11 08:00:15;;;;;;;21.70;13.57;;;;;;;6.60;41.78;100120.56;5113422;27;20519;-61
2022/03/11 08:02:42;;;;;;;22.35;14.40;;;;;;;6.65;41.79;100117.78;5113189;28;20552;-63
2022/03/11 08:05:15;;;;;;;23.45;14.50;;;;;;;6.71;41.65;100114.97;5113259;28;20047;-61
2022/03/11 08:07:48;;;;;;;23.40;13.60;;;;;;;6.77;41.48;100109.50;5112046;28;20059;-61
2022/03/11 08:10:18;;;;;;;21.77;12.52;;;;;;;6.86;41.43;100121.41;5113638;28;20380;-62
2022/03/11 08:12:45;;;;;;;20.33;13.25;;;;;;;6.94;41.05;100115.91;5114153;28;20051;-63
2022/03/11 08:15:12;;;;;;;20.52;13.40;;;;;;;7.02;40.93;100107.75;5113847;28;20711;-61
2022/03/11 08:17:40;;;;;;;23.25;13.07;;;;;;;7.09;41.05;100109.25;5113175;28;20050;-61
2022/03/11 08:20:09;;;;;;;20.73;12.93;;;;;;;7.19;40.73;100101.06;5112080;27;20044;-61
2022/03/11 08:22:36;;;;;;;22.92;13.00;;;;;;;7.27;40.75;100099.88;5113502;28;20061;-61
2022/03/11 08:25:03;;;;;;;21.98;13.77;;;;;;;7.36;40.32;100096.03;5112072;28;20043;-63
2022/03/11 08:27:30;;;;;;;18.73;13.38;;;;;;;7.41;40.07;100094.09;5113962;28;20100;-64
2022/03/11 08:29:56;;;;;;;23.88;13.98;;;;;;;7.50;40.13;100092.03;5113229;28;20453;-61
2022/03/11 08:32:27;;;;;;;18.60;12.43;;;;;;;7.58;39.95;100091.75;5113248;28;20047;-61
2022/03/11 08:34:55;;;;;;;20.88;12.75;;;;;;;7.63;39.35;100090.63;5113381;28;20059;-61
2022/03/11 08:37:27;;;;;;;17.52;12.05;;;;;;;7.71;39.23;100081.63;5112008;28;20054;-62
2022/03/11 08:40:00;;;;;;;22.02;12.38;;;;;;;7.75;39.28;100097.19;5113156;28;20047;-62
2022/03/11 08:42:27;;;;;;;22.83;12.50;;;;;;;7.81;39.04;100090.81;5112145;28;20055;-61
2022/03/11 08:44:53;;;;;;;21.40;12.52;;;;;;;7.85;39.04;100092.41;5113315;28;20207;-62
2022/03/11 08:47:20;;;;;;;19.58;12.48;;;;;;;7.91;39.06;100089.53;5112767;28;20104;-66
2022/03/11 08:49:47;;;;;;;19.08;11.95;;;;;;;7.95;38.84;100085.88;5111739;28;20563;-63
2022/03/11 08:52:13;;;;;;;20.75;11.43;;;;;;;8.02;38.95;100080.38;5112212;28;20518;-62
2022/03/11 08:54:42;;;;;;;20.23;12.30;;;;;;;8.07;38.72;100092.38;5113048;28;20449;-62
2022/03/11 08:57:08;;;;;;;17.83;11.98;;;;;;;8.14;38.48;100085.13;5111830;28;20662;-61
2022/03/11 08:59:35;;;;;;;19.42;11.70;;;;;;;8.20;38.16;100082.25;5111316;28;20047;-62
2022/03/11 09:02:02;;;;;;;16.50;10.93;;;;;;;8.26;38.25;100077.66;5112979;28;20047;-62
2022/03/11 09:04:30;;;;;;;17.52;11.00;;;;;;;8.33;38.13;100071.22;5112136;27;20074;-63
2022/03/11 09:06:57;;;;;;;17.42;11.02;;;;;;;8.40;37.77;100059.56;5111695;28;20046;-61
2022/03/11 09:09:27;;;;;;;17.60;10.77;;;;;;;8.47;37.67;100062.78;5112892;28;20047;-64
2022/03/11 09:11:59;;;;;;;18.38;10.50;;;;;;;8.53;37.83;100061.69;5112637;28;20048;-63
2022/03/11 09:14:25;;;;;;;19.50;11.20;;;;;;;8.61;37.65;100064.84;5111135;28;20061;-62
2022/03/11 09:16:53;;;;;;;18.45;10.82;;;;;;;8.65;37.71;100053.28;5112475;28;20511;-62
2022/03/11 09:19:20;;;;;;;17.42;11.15;;;;;;;8.71;37.53;100042.50;5112485;28;20070;-62
2022/03/11 09:21:47;;;;;;;15.23;10.48;;;;;;;8.78;37.05;100039.63;5112537;28;20051;-61
2022/03/11 09:24:14;;;;;;;17.50;10.93;;;;;;;8.84;37.06;100045.44;5112350;28;20055;-62
2022/03/11 09:26:41;;;;;;;18.05;11.07;;;;;;;8.90;36.88;100048.69;5111100;28;20445;-61
2022/03/11 09:29:19;;;;;;;16.60;10.88;;;;;;;8.98;37.30;100039.53;5112010;28;20062;-62
2022/03/11 09:31:46;;;;;;;15.80;10.25;;;;;;;9.05;36.79;100050.63;5112075;28;20499;-62
2022/03/11 09:34:12;;;;;;;17.00;10.90;;;;;;;9.12;36.82;100053.81;5111835;28;20552;-62
2022/03/11 09:36:39;;;;;;;15.07;10.32;;;;;;;9.20;37.23;100051.69;5112325;28;20044;-62
2022/03/11 09:39:05;;;;;;;16.83;10.63;;;;;;;9.29;37.12;100049.53;5112367;28;20047;-66
2022/03/11 09:41:33;;;;;;;15.82;10.20;;;;;;;9.37;36.71;100050.91;5112113;28;20055;-62
2022/03/11 09:44:02;;;;;;;17.05;10.02;;;;;;;9.45;36.39;100054.91;5110341;28;20097;-63
2022/03/11 09:46:29;;;;;;;14.73;9.52;;;;;;;9.55;36.75;100053.56;5111702;28;20746;-61
2022/03/11 09:48:56;;;;;;;17.30;10.02;;;;;;;9.63;36.15;100047.94;5111633;28;20138;-63
2022/03/11 09:51:28;;;;;;;21.05;9.90;;;;;;;9.72;35.90;100055.38;5110266;28;20066;-69
2022/03/11 09:53:55;;;;;;;20.13;10.27;;;;;;;9.81;35.89;100050.59;5110398;28;20096;-63
2022/03/11 09:56:22;;;;;;;14.20;10.02;;;;;;;9.87;36.23;100048.50;5111847;28;20048;-62
2022/03/11 09:58:52;;;;;;;14.32;9.27;;;;;;;9.93;35.75;100043.88;5111632;28;20058;-63
2022/03/11 10:01:19;;;;;;;13.05;8.88;;;;;;;10.02;36.32;100023.22;5111136;28;20054;-63
2022/03/11 10:03:46;;;;;;;19.20;10.40;;;;;;;10.13;36.23;100029.75;5111832;28;20043;-62
2022/03/11 10:06:13;;;;;;;15.82;9.43;;;;;;;10.23;36.02;100025.72;5110560;28;20120;-63
2022/03/11 10:08:44;;;;;;;15.50;9.80;;;;;;;10.34;36.07;100030.41;5110992;28;20130;-62
2022/03/11 10:11:19;;;;;;;13.68;9.85;;;;;;;10.45;34.69;100011.47;5111428;28;20059;-62
2022/03/11 10:13:46;;;;;;;16.67;9.57;;;;;;;10.57;35.46;100011.75;5111559;28;20470;-62
2022/03/11 10:16:18;;;;;;;16.10;9.88;;;;;;;10.63;34.88;100004.38;5109794;28;20051;-61
2022/03/11 10:19:13;;;;;;;13.20;9.03;;;;;;;10.75;35.14;99999.38;5111506;28;20048;-62
2022/03/11 10:21:45;;;;;;;17.88;10.13;;;;;;;10.89;34.98;99998.63;5110091;28;20051;-63
2022/03/11 10:24:14;;;;;;;15.97;9.57;;;;;;;11.01;34.84;99997.97;5111552;28;20055;-62
2022/03/11 10:26:45;;;;;;;13.05;8.93;;;;;;;11.11;34.70;99993.06;5110099;28;20305;-62
2022/03/11 10:29:14;;;;;;;15.25;9.30;;;;;;;11.22;34.53;99997.72;5111061;28;20549;-62
2022/03/11 10:31:43;;;;;;;16.60;10.23;;;;;;;11.29;34.49;99992.97;5109862;28;20055;-61
2022/03/11 10:34:11;;;;;;;15.30;10.13;;;;;;;11.36;34.36;99989.03;5109184;28;20069;-61
2022/03/11 10:36:56;;;;;;;16.05;9.13;;;;;;;11.43;33.88;99997.44;5110118;28;20078;-62
2022/03/11 10:39:26;;;;;;;12.80;9.18;;;;;;;11.53;34.03;99993.34;5110779;28;20088;-61
2022/03/11 10:42:24;;;;;;;15.48;9.65;;;;;;;11.63;33.79;99987.53;5111033;28;20051;-62
2022/03/11 10:45:02;;;;;;;13.23;8.73;;;;;;;11.76;33.84;99992.94;5109343;28;20059;-63
2022/03/11 10:47:34;;;;;;;15.35;9.02;;;;;;;11.88;33.32;99986.13;5111024;28;20051;-64
2022/03/11 10:50:06;;;;;;;15.88;9.30;;;;;;;11.98;33.79;99988.13;5109034;28;20488;-62
2022/03/11 10:52:42;;;;;;;15.23;9.18;;;;;;;12.06;33.18;99979.78;5109718;28;20055;-63
2022/03/11 10:55:26;;;;;;;12.68;9.00;;;;;;;12.12;32.84;99989.94;5110030;28;20055;-63
2022/03/11 10:57:54;;;;;;;12.70;8.73;;;;;;;12.25;33.09;99983.94;5110942;28;20044;-63
2022/03/11 11:00:30;;;;;;;14.20;9.18;;;;;;;12.28;32.65;99982.91;5109554;28;20044;-62
2022/03/11 11:03:02;;;;;;;17.10;8.88;;;;;;;12.36;33.09;99978.88;5109592;28;20414;-61
2022/03/11 11:05:30;;;;;;;12.82;8.38;;;;;;;12.44;32.69;99975.75;5111081;28;20075;-61
2022/03/11 11:07:59;;;;;;;13.07;8.68;;;;;;;12.50;32.47;99978.03;5109616;28;20085;-62
2022/03/11 11:10:30;;;;;;;14.18;8.15;;;;;;;12.60;32.56;99972.16;5109736;28;20084;-63
2022/03/11 11:12:57;;;;;;;13.45;8.98;;;;;;;12.70;32.40;99969.78;5110225;28;20044;-62
2022/03/11 11:15:24;;;;;;;13.45;8.40;;;;;;;12.80;32.19;99963.00;5114947;28;20449;-61
2022/03/11 11:17:52;;;;;;;13.95;9.00;;;;;;;12.89;31.93;99978.25;5112688;28;20055;-63
2022/03/11 11:20:38;;;;;;;15.90;9.63;;;;;;;12.98;31.56;99962.78;5113400;28;20051;-62
2022/03/11 11:23:06;;;;;;;11.73;8.32;;;;;;;13.14;32.21;99968.78;5113707;28;20089;-62